sensor_id;sensor_type;location;lat;lon;timestamp;P1;durP1;ratioP1;P2;durP2;ratioP2
34828;SDS011;21042;47.620;12.188;2023-11-21T00:02:25;15.43;;;8.32;;
34828;SDS011;21042;47.620;12.188;2023-11-21T00:04:53;19.15;;;8.85;;
34828;SDS011;21042;47.620;12.188;2023-11-21T00:07:20;16.95;;;9.50;;
34828;SDS011;21042;47.620;12.188;2023-11-21T00:12:14;21.25;;;11.02;;
34828;SDS011;21042;47.620;12.188;2023-11-21T00:14:41;22.40;;;11.63;;
34828;SDS011;21042;47.620;12.188;2023-11-21T00:17:08;22.95;;;11.45;;
34828;SDS011;21042;47.620;12.188;2023-11-21T00:19:35;20.63;;;9.48;;
34828;SDS011;21042;47.620;12.188;2023-11-21T00:22:02;14.77;;;9.50;;
34828;SDS011;21042;47.620;12.188;2023-11-21T00:24:29;17.35;;;8.38;;
34828;SDS011;21042;47.620;12.188;2023-11-21T00:26:56;17.75;;;8.52;;
34828;SDS011;21042;47.620;12.188;2023-11-21T00:29:22;18.52;;;8.70;;
34828;SDS011;21042;47.620;12.188;2023-11-21T00:34:17;17.55;;;8.27;;
34828;SDS011;21042;47.620;12.188;2023-11-21T00:36:44;15.80;;;8.55;;
34828;SDS011;21042;47.620;12.188;2023-11-21T00:39:10;15.88;;;9.13;;
34828;SDS011;21042;47.620;12.188;2023-11-21T00:41:39;15.38;;;7.70;;
34828;SDS011;21042;47.620;12.188;2023-11-21T00:44:06;12.38;;;7.82;;
34828;SDS011;21042;47.620;12.188;2023-11-21T00:46:33;15.68;;;8.40;;
34828;SDS011;21042;47.620;12.188;2023-11-21T00:49:00;15.63;;;7.97;;
34828;SDS011;21042;47.620;12.188;2023-11-21T00:51:27;10.32;;;6.20;;
34828;SDS011;21042;47.620;12.188;2023-11-21T00:53:53;10.60;;;7.10;;
34828;SDS011;21042;47.620;12.188;2023-11-21T00:56:20;20.02;;;8.88;;
34828;SDS011;21042;47.620;12.188;2023-11-21T01:01:18;13.85;;;7.95;;
34828;SDS011;21042;47.620;12.188;2023-11-21T01:03:46;15.55;;;9.45;;
34828;SDS011;21042;47.620;12.188;2023-11-21T01:06:13;19.92;;;10.73;;
34828;SDS011;21042;47.620;12.188;2023-11-21T01:08:41;25.70;;;9.65;;
34828;SDS011;21042;47.620;12.188;2023-11-21T01:11:10;16.35;;;10.23;;
34828;SDS011;21042;47.620;12.188;2023-11-21T01:13:38;21.75;;;11.35;;
34828;SDS011;21042;47.620;12.188;2023-11-21T01:16:06;20.83;;;10.70;;
34828;SDS011;21042;47.620;12.188;2023-11-21T01:21:01;17.20;;;10.68;;
34828;SDS011;21042;47.620;12.188;2023-11-21T01:23:27;15.77;;;9.88;;
34828;SDS011;21042;47.620;12.188;2023-11-21T01:25:55;16.75;;;9.93;;
34828;SDS011;21042;47.620;12.188;2023-11-21T01:28:23;20.88;;;10.57;;
34828;SDS011;21042;47.620;12.188;2023-11-21T01:30:50;17.60;;;9.55;;
34828;SDS011;21042;47.620;12.188;2023-11-21T01:33:18;19.02;;;9.10;;
34828;SDS011;21042;47.620;12.188;2023-11-21T01:35:45;21.83;;;10.07;;
34828;SDS011;21042;47.620;12.188;2023-11-21T01:38:12;21.50;;;11.30;;
34828;SDS011;21042;47.620;12.188;2023-11-21T01:40:40;20.55;;;10.07;;
34828;SDS011;21042;47.620;12.188;2023-11-21T01:43:07;19.80;;;10.68;;
34828;SDS011;21042;47.620;12.188;2023-11-21T01:45:34;21.00;;;12.23;;
34828;SDS011;21042;47.620;12.188;2023-11-21T01:48:01;17.20;;;8.57;;
34828;SDS011;21042;47.620;12.188;2023-11-21T01:50:29;22.88;;;13.07;;
34828;SDS011;21042;47.620;12.188;2023-11-21T01:52:57;23.98;;;13.55;;
34828;SDS011;21042;47.620;12.188;2023-11-21T01:57:55;22.02;;;11.82;;
34828;SDS011;21042;47.620;12.188;2023-11-21T02:00:23;24.70;;;13.18;;
34828;SDS011;21042;47.620;12.188;2023-11-21T02:02:51;24.00;;;14.25;;
34828;SDS011;21042;47.620;12.188;2023-11-21T02:05:18;29.33;;;15.80;;
34828;SDS011;21042;47.620;12.188;2023-11-21T02:07:47;28.15;;;14.80;;
34828;SDS011;21042;47.620;12.188;2023-11-21T02:10:15;29.20;;;14.13;;
34828;SDS011;21042;47.620;12.188;2023-11-21T02:12:43;29.05;;;14.90;;
34828;SDS011;21042;47.620;12.188;2023-11-21T02:15:12;26.60;;;14.88;;
34828;SDS011;21042;47.620;12.188;2023-11-21T02:17:50;27.13;;;15.32;;
34828;SDS011;21042;47.620;12.188;2023-11-21T02:20:21;26.05;;;14.23;;
34828;SDS011;21042;47.620;12.188;2023-11-21T02:25:24;13.68;;;7.03;;
34828;SDS011;21042;47.620;12.188;2023-11-21T02:27:52;21.25;;;11.95;;
34828;SDS011;21042;47.620;12.188;2023-11-21T02:30:23;61.83;;;12.15;;
34828;SDS011;21042;47.620;12.188;2023-11-21T02:33:00;47.97;;;11.20;;
34828;SDS011;21042;47.620;12.188;2023-11-21T02:35:27;16.13;;;9.15;;
34828;SDS011;21042;47.620;12.188;2023-11-21T02:37:54;20.13;;;10.45;;
34828;SDS011;21042;47.620;12.188;2023-11-21T02:40:23;22.88;;;11.13;;
34828;SDS011;21042;47.620;12.188;2023-11-21T02:42:52;23.17;;;13.70;;
34828;SDS011;21042;47.620;12.188;2023-11-21T02:45:19;29.02;;;16.10;;
34828;SDS011;21042;47.620;12.188;2023-11-21T02:47:50;31.70;;;15.90;;
34828;SDS011;21042;47.620;12.188;2023-11-21T02:50:20;25.55;;;14.88;;
34828;SDS011;21042;47.620;12.188;2023-11-21T02:52:50;29.25;;;16.30;;
34828;SDS011;21042;47.620;12.188;2023-11-21T02:55:17;28.92;;;16.67;;
34828;SDS011;21042;47.620;12.188;2023-11-21T02:57:45;25.77;;;13.32;;
34828;SDS011;21042;47.620;12.188;2023-11-21T03:00:12;22.10;;;13.57;;
34828;SDS011;21042;47.620;12.188;2023-11-21T03:02:42;26.73;;;14.65;;
34828;SDS011;21042;47.620;12.188;2023-11-21T03:05:10;27.17;;;15.60;;
34828;SDS011;21042;47.620;12.188;2023-11-21T03:07:37;26.88;;;14.77;;
34828;SDS011;21042;47.620;12.188;2023-11-21T03:10:04;31.05;;;14.70;;
34828;SDS011;21042;47.620;12.188;2023-11-21T03:12:33;26.35;;;15.73;;
34828;SDS011;21042;47.620;12.188;2023-11-21T03:15:00;26.75;;;14.55;;
34828;SDS011;21042;47.620;12.188;2023-11-21T03:17:28;26.58;;;14.82;;
34828;SDS011;21042;47.620;12.188;2023-11-21T03:19:55;28.60;;;14.90;;
34828;SDS011;21042;47.620;12.188;2023-11-21T03:22:23;24.27;;;11.50;;
34828;SDS011;21042;47.620;12.188;2023-11-21T03:24:50;19.88;;;10.07;;
34828;SDS011;21042;47.620;12.188;2023-11-21T03:27:17;17.90;;;9.43;;
34828;SDS011;21042;47.620;12.188;2023-11-21T03:29:44;15.70;;;9.38;;
34828;SDS011;21042;47.620;12.188;2023-11-21T03:32:12;17.42;;;9.13;;
34828;SDS011;21042;47.620;12.188;2023-11-21T03:34:52;16.02;;;8.18;;
34828;SDS011;21042;47.620;12.188;2023-11-21T03:37:22;19.55;;;10.13;;
34828;SDS011;21042;47.620;12.188;2023-11-21T03:39:49;16.75;;;9.75;;
34828;SDS011;21042;47.620;12.188;2023-11-21T03:42:16;15.13;;;10.50;;
34828;SDS011;21042;47.620;12.188;2023-11-21T03:44:42;16.75;;;10.27;;
34828;SDS011;21042;47.620;12.188;2023-11-21T03:47:09;20.02;;;10.00;;
34828;SDS011;21042;47.620;12.188;2023-11-21T03:49:36;23.42;;;10.93;;
34828;SDS011;21042;47.620;12.188;2023-11-21T03:52:04;20.35;;;10.82;;
34828;SDS011;21042;47.620;12.188;2023-11-21T03:54:31;25.77;;;12.48;;
34828;SDS011;21042;47.620;12.188;2023-11-21T03:59:25;26.63;;;9.90;;
34828;SDS011;21042;47.620;12.188;2023-11-21T04:01:52;17.27;;;7.85;;
34828;SDS011;21042;47.620;12.188;2023-11-21T04:04:23;15.63;;;7.03;;
34828;SDS011;21042;47.620;12.188;2023-11-21T04:06:50;14.70;;;7.50;;
34828;SDS011;21042;47.620;12.188;2023-11-21T04:09:18;12.82;;;6.70;;
34828;SDS011;21042;47.620;12.188;2023-11-21T04:11:45;14.27;;;8.15;;
34828;SDS011;21042;47.620;12.188;2023-11-21T04:14:12;13.70;;;6.80;;
34828;SDS011;21042;47.620;12.188;2023-11-21T04:16:40;11.35;;;6.00;;
34828;SDS011;21042;47.620;12.188;2023-11-21T04:19:07;10.40;;;5.80;;
34828;SDS011;21042;47.620;12.188;2023-11-21T04:21:36;13.82;;;5.43;;
34828;SDS011;21042;47.620;12.188;2023-11-21T04:26:30;10.63;;;6.18;;
34828;SDS011;21042;47.620;12.188;2023-11-21T04:28:57;11.82;;;5.82;;
34828;SDS011;21042;47.620;12.188;2023-11-21T04:31:24;13.57;;;6.45;;
34828;SDS011;21042;47.620;12.188;2023-11-21T04:33:51;18.52;;;8.68;;
34828;SDS011;21042;47.620;12.188;2023-11-21T04:36:18;14.73;;;7.28;;
34828;SDS011;21042;47.620;12.188;2023-11-21T04:41:12;13.90;;;7.53;;
34828;SDS011;21042;47.620;12.188;2023-11-21T04:43:39;14.63;;;8.88;;
34828;SDS011;21042;47.620;12.188;2023-11-21T04:46:06;16.73;;;8.52;;
34828;SDS011;21042;47.620;12.188;2023-11-21T04:48:33;13.50;;;7.93;;
34828;SDS011;21042;47.620;12.188;2023-11-21T04:51:00;14.63;;;7.38;;
34828;SDS011;21042;47.620;12.188;2023-11-21T04:53:26;10.57;;;5.10;;
34828;SDS011;21042;47.620;12.188;2023-11-21T04:55:53;8.18;;;4.10;;
34828;SDS011;21042;47.620;12.188;2023-11-21T04:58:20;10.98;;;6.72;;
34828;SDS011;21042;47.620;12.188;2023-11-21T05:00:47;11.80;;;4.43;;
34828;SDS011;21042;47.620;12.188;2023-11-21T05:03:14;7.75;;;3.22;;
34828;SDS011;21042;47.620;12.188;2023-11-21T05:05:41;7.40;;;3.22;;
34828;SDS011;21042;47.620;12.188;2023-11-21T05:08:08;6.72;;;3.53;;
34828;SDS011;21042;47.620;12.188;2023-11-21T05:10:34;8.05;;;4.35;;
34828;SDS011;21042;47.620;12.188;2023-11-21T05:13:04;7.40;;;4.43;;
34828;SDS011;21042;47.620;12.188;2023-11-21T05:15:36;11.40;;;4.53;;
34828;SDS011;21042;47.620;12.188;2023-11-21T05:18:04;11.75;;;5.25;;
34828;SDS011;21042;47.620;12.188;2023-11-21T05:22:59;8.02;;;4.15;;
34828;SDS011;21042;47.620;12.188;2023-11-21T05:25:26;7.88;;;4.63;;
34828;SDS011;21042;47.620;12.188;2023-11-21T05:27:53;11.40;;;4.05;;
34828;SDS011;21042;47.620;12.188;2023-11-21T05:30:21;9.65;;;5.25;;
34828;SDS011;21042;47.620;12.188;2023-11-21T05:32:48;15.27;;;5.70;;
34828;SDS011;21042;47.620;12.188;2023-11-21T05:35:16;17.58;;;7.03;;
34828;SDS011;21042;47.620;12.188;2023-11-21T05:37:46;13.77;;;6.60;;
34828;SDS011;21042;47.620;12.188;2023-11-21T05:40:14;12.77;;;6.05;;
34828;SDS011;21042;47.620;12.188;2023-11-21T05:42:41;12.00;;;5.57;;
34828;SDS011;21042;47.620;12.188;2023-11-21T05:45:08;13.70;;;7.05;;
34828;SDS011;21042;47.620;12.188;2023-11-21T05:47:37;20.92;;;7.30;;
34828;SDS011;21042;47.620;12.188;2023-11-21T05:50:07;15.73;;;7.63;;
34828;SDS011;21042;47.620;12.188;2023-11-21T05:52:36;16.63;;;7.35;;
34828;SDS011;21042;47.620;12.188;2023-11-21T05:57:37;19.17;;;7.25;;
34828;SDS011;21042;47.620;12.188;2023-11-21T06:00:08;15.80;;;6.60;;
34828;SDS011;21042;47.620;12.188;2023-11-21T06:02:49;14.30;;;7.22;;
34828;SDS011;21042;47.620;12.188;2023-11-21T06:05:23;12.05;;;7.43;;
34828;SDS011;21042;47.620;12.188;2023-11-21T06:07:52;11.10;;;6.38;;
34828;SDS011;21042;47.620;12.188;2023-11-21T06:10:20;12.63;;;6.38;;
34828;SDS011;21042;47.620;12.188;2023-11-21T06:12:48;14.02;;;6.25;;
34828;SDS011;21042;47.620;12.188;2023-11-21T06:15:15;13.43;;;6.30;;
34828;SDS011;21042;47.620;12.188;2023-11-21T06:17:45;9.90;;;5.60;;
34828;SDS011;21042;47.620;12.188;2023-11-21T06:20:15;11.32;;;5.97;;
34828;SDS011;21042;47.620;12.188;2023-11-21T06:22:45;15.15;;;7.10;;
34828;SDS011;21042;47.620;12.188;2023-11-21T06:25:14;13.10;;;8.05;;
34828;SDS011;21042;47.620;12.188;2023-11-21T06:27:45;14.68;;;8.25;;
34828;SDS011;21042;47.620;12.188;2023-11-21T06:30:17;12.82;;;7.32;;
34828;SDS011;21042;47.620;12.188;2023-11-21T06:32:45;8.32;;;5.03;;
34828;SDS011;21042;47.620;12.188;2023-11-21T06:35:13;12.38;;;5.32;;
34828;SDS011;21042;47.620;12.188;2023-11-21T06:37:42;6.07;;;4.40;;
34828;SDS011;21042;47.620;12.188;2023-11-21T06:40:14;12.95;;;5.80;;
34828;SDS011;21042;47.620;12.188;2023-11-21T06:45:08;10.43;;;3.95;;
34828;SDS011;21042;47.620;12.188;2023-11-21T06:47:37;8.82;;;4.38;;
34828;SDS011;21042;47.620;12.188;2023-11-21T06:50:05;10.70;;;5.90;;
34828;SDS011;21042;47.620;12.188;2023-11-21T06:52:33;10.98;;;5.72;;
34828;SDS011;21042;47.620;12.188;2023-11-21T06:55:00;12.70;;;5.90;;
34828;SDS011;21042;47.620;12.188;2023-11-21T06:57:27;12.43;;;5.28;;
34828;SDS011;21042;47.620;12.188;2023-11-21T06:59:54;9.98;;;4.97;;
34828;SDS011;21042;47.620;12.188;2023-11-21T07:02:23;10.77;;;4.93;;
34828;SDS011;21042;47.620;12.188;2023-11-21T07:04:50;14.45;;;6.05;;
34828;SDS011;21042;47.620;12.188;2023-11-21T07:07:18;14.40;;;7.13;;
34828;SDS011;21042;47.620;12.188;2023-11-21T07:09:45;14.07;;;7.68;;
34828;SDS011;21042;47.620;12.188;2023-11-21T07:12:12;13.32;;;8.02;;
34828;SDS011;21042;47.620;12.188;2023-11-21T07:14:40;15.48;;;8.32;;
34828;SDS011;21042;47.620;12.188;2023-11-21T07:17:09;14.70;;;8.00;;
34828;SDS011;21042;47.620;12.188;2023-11-21T07:19:36;15.27;;;7.95;;
34828;SDS011;21042;47.620;12.188;2023-11-21T07:22:03;12.55;;;7.68;;
34828;SDS011;21042;47.620;12.188;2023-11-21T07:24:32;14.57;;;8.02;;
34828;SDS011;21042;47.620;12.188;2023-11-21T07:26:59;12.82;;;7.75;;
34828;SDS011;21042;47.620;12.188;2023-11-21T07:29:27;16.40;;;7.80;;
34828;SDS011;21042;47.620;12.188;2023-11-21T07:31:55;13.88;;;8.15;;
34828;SDS011;21042;47.620;12.188;2023-11-21T07:34:22;14.70;;;7.85;;
34828;SDS011;21042;47.620;12.188;2023-11-21T07:36:49;12.98;;;7.97;;
34828;SDS011;21042;47.620;12.188;2023-11-21T07:39:16;16.13;;;8.25;;
34828;SDS011;21042;47.620;12.188;2023-11-21T07:41:43;20.08;;;8.70;;
34828;SDS011;21042;47.620;12.188;2023-11-21T07:44:16;13.73;;;8.82;;
34828;SDS011;21042;47.620;12.188;2023-11-21T07:46:43;15.90;;;8.52;;
34828;SDS011;21042;47.620;12.188;2023-11-21T07:49:11;13.10;;;7.10;;
34828;SDS011;21042;47.620;12.188;2023-11-21T07:54:05;14.50;;;7.32;;
34828;SDS011;21042;47.620;12.188;2023-11-21T07:56:31;14.60;;;7.90;;
34828;SDS011;21042;47.620;12.188;2023-11-21T07:58:58;13.95;;;8.10;;
34828;SDS011;21042;47.620;12.188;2023-11-21T08:01:25;15.73;;;7.30;;
34828;SDS011;21042;47.620;12.188;2023-11-21T08:03:54;11.32;;;6.72;;
34828;SDS011;21042;47.620;12.188;2023-11-21T08:06:23;15.50;;;5.88;;
34828;SDS011;21042;47.620;12.188;2023-11-21T08:08:51;11.45;;;5.38;;
34828;SDS011;21042;47.620;12.188;2023-11-21T08:11:18;9.10;;;4.25;;
34828;SDS011;21042;47.620;12.188;2023-11-21T08:13:47;8.93;;;4.93;;
34828;SDS011;21042;47.620;12.188;2023-11-21T08:16:14;6.15;;;3.47;;
34828;SDS011;21042;47.620;12.188;2023-11-21T08:18:41;10.38;;;5.50;;
34828;SDS011;21042;47.620;12.188;2023-11-21T08:21:08;18.25;;;7.90;;
34828;SDS011;21042;47.620;12.188;2023-11-21T08:23:35;15.95;;;8.35;;
34828;SDS011;21042;47.620;12.188;2023-11-21T08:26:01;16.38;;;8.15;;
34828;SDS011;21042;47.620;12.188;2023-11-21T08:28:31;16.05;;;8.35;;
34828;SDS011;21042;47.620;12.188;2023-11-21T08:30:58;17.42;;;9.88;;
34828;SDS011;21042;47.620;12.188;2023-11-21T08:33:27;18.80;;;7.20;;
34828;SDS011;21042;47.620;12.188;2023-11-21T08:35:54;12.95;;;8.18;;
34828;SDS011;21042;47.620;12.188;2023-11-21T08:38:21;13.18;;;7.50;;
34828;SDS011;21042;47.620;12.188;2023-11-21T08:43:15;16.27;;;8.02;;
34828;SDS011;21042;47.620;12.188;2023-11-21T08:45:42;15.57;;;8.18;;
34828;SDS011;21042;47.620;12.188;2023-11-21T08:48:09;17.15;;;8.95;;
34828;SDS011;21042;47.620;12.188;2023-11-21T08:50:37;17.00;;;9.00;;
34828;SDS011;21042;47.620;12.188;2023-11-21T08:53:04;18.75;;;8.07;;
34828;SDS011;21042;47.620;12.188;2023-11-21T08:55:32;13.77;;;8.40;;
34828;SDS011;21042;47.620;12.188;2023-11-21T08:58:03;15.00;;;7.95;;
34828;SDS011;21042;47.620;12.188;2023-11-21T09:00:32;13.25;;;7.50;;
34828;SDS011;21042;47.620;12.188;2023-11-21T09:03:00;11.70;;;7.32;;
34828;SDS011;21042;47.620;12.188;2023-11-21T09:05:28;12.43;;;7.28;;
34828;SDS011;21042;47.620;12.188;2023-11-21T09:07:56;16.25;;;8.13;;
34828;SDS011;21042;47.620;12.188;2023-11-21T09:10:23;17.17;;;8.32;;
34828;SDS011;21042;47.620;12.188;2023-11-21T09:12:52;13.32;;;7.78;;
34828;SDS011;21042;47.620;12.188;2023-11-21T09:15:18;17.35;;;9.05;;
34828;SDS011;21042;47.620;12.188;2023-11-21T09:17:47;16.85;;;9.85;;
34828;SDS011;21042;47.620;12.188;2023-11-21T09:20:14;19.33;;;8.85;;
34828;SDS011;21042;47.620;12.188;2023-11-21T09:25:08;14.95;;;8.10;;
34828;SDS011;21042;47.620;12.188;2023-11-21T09:27:35;18.38;;;8.38;;
34828;SDS011;21042;47.620;12.188;2023-11-21T09:30:02;14.30;;;8.10;;
34828;SDS011;21042;47.620;12.188;2023-11-21T09:32:31;17.58;;;8.35;;
34828;SDS011;21042;47.620;12.188;2023-11-21T09:34:58;15.20;;;8.18;;
34828;SDS011;21042;47.620;12.188;2023-11-21T09:37:26;15.38;;;6.68;;
34828;SDS011;21042;47.620;12.188;2023-11-21T09:39:54;12.00;;;7.15;;
34828;SDS011;21042;47.620;12.188;2023-11-21T09:47:39;12.68;;;7.22;;
34828;SDS011;21042;47.620;12.188;2023-11-21T09:50:06;12.88;;;7.57;;
34828;SDS011;21042;47.620;12.188;2023-11-21T09:52:46;22.15;;;7.97;;
34828;SDS011;21042;47.620;12.188;2023-11-21T09:55:21;14.88;;;8.30;;
34828;SDS011;21042;47.620;12.188;2023-11-21T09:57:50;13.93;;;9.07;;
34828;SDS011;21042;47.620;12.188;2023-11-21T10:00:17;14.73;;;8.70;;
34828;SDS011;21042;47.620;12.188;2023-11-21T10:02:47;10.95;;;7.40;;
34828;SDS011;21042;47.620;12.188;2023-11-21T10:05:16;18.38;;;7.75;;
34828;SDS011;21042;47.620;12.188;2023-11-21T10:07:43;20.55;;;7.55;;
34828;SDS011;21042;47.620;12.188;2023-11-21T10:10:11;15.27;;;8.20;;
34828;SDS011;21042;47.620;12.188;2023-11-21T10:12:38;17.27;;;6.85;;
34828;SDS011;21042;47.620;12.188;2023-11-21T10:15:07;18.42;;;6.55;;
34828;SDS011;21042;47.620;12.188;2023-11-21T10:17:35;12.02;;;7.07;;
34828;SDS011;21042;47.620;12.188;2023-11-21T10:20:11;14.60;;;7.20;;
34828;SDS011;21042;47.620;12.188;2023-11-21T10:22:40;19.02;;;7.00;;
34828;SDS011;21042;47.620;12.188;2023-11-21T10:25:10;18.67;;;7.15;;
34828;SDS011;21042;47.620;12.188;2023-11-21T10:27:40;14.60;;;7.65;;
34828;SDS011;21042;47.620;12.188;2023-11-21T10:32:38;12.68;;;7.50;;
34828;SDS011;21042;47.620;12.188;2023-11-21T10:35:07;21.08;;;7.85;;
34828;SDS011;21042;47.620;12.188;2023-11-21T10:37:37;16.35;;;7.57;;
34828;SDS011;21042;47.620;12.188;2023-11-21T10:40:08;18.85;;;7.63;;
34828;SDS011;21042;47.620;12.188;2023-11-21T10:42:39;15.65;;;7.18;;
34828;SDS011;21042;47.620;12.188;2023-11-21T10:45:07;15.55;;;8.23;;
34828;SDS011;21042;47.620;12.188;2023-11-21T10:47:41;17.60;;;6.93;;
34828;SDS011;21042;47.620;12.188;2023-11-21T10:50:10;10.48;;;5.80;;
34828;SDS011;21042;47.620;12.188;2023-11-21T10:52:39;12.15;;;5.45;;
34828;SDS011;21042;47.620;12.188;2023-11-21T10:55:18;21.55;;;7.38;;
34828;SDS011;21042;47.620;12.188;2023-11-21T10:57:48;6.65;;;4.30;;
34828;SDS011;21042;47.620;12.188;2023-11-21T11:00:15;4.55;;;3.05;;
34828;SDS011;21042;47.620;12.188;2023-11-21T11:02:50;7.20;;;2.25;;
34828;SDS011;21042;47.620;12.188;2023-11-21T11:05:21;4.05;;;1.58;;
34828;SDS011;21042;47.620;12.188;2023-11-21T11:07:50;6.47;;;1.70;;
34828;SDS011;21042;47.620;12.188;2023-11-21T11:10:26;3.63;;;1.15;;
34828;SDS011;21042;47.620;12.188;2023-11-21T11:12:57;3.10;;;1.17;;
34828;SDS011;21042;47.620;12.188;2023-11-21T11:15:25;1.80;;;0.98;;
34828;SDS011;21042;47.620;12.188;2023-11-21T11:17:53;1.35;;;0.80;;
34828;SDS011;21042;47.620;12.188;2023-11-21T11:20:30;4.50;;;1.00;;
34828;SDS011;21042;47.620;12.188;2023-11-21T11:23:32;1.60;;;1.13;;
34828;SDS011;21042;47.620;12.188;2023-11-21T11:29:43;2.78;;;0.63;;
34828;SDS011;21042;47.620;12.188;2023-11-21T11:32:36;4.63;;;0.95;;
34828;SDS011;21042;47.620;12.188;2023-11-21T11:35:16;1.85;;;0.75;;
34828;SDS011;21042;47.620;12.188;2023-11-21T11:37:49;1.50;;;0.73;;
34828;SDS011;21042;47.620;12.188;2023-11-21T11:40:16;4.47;;;0.95;;
34828;SDS011;21042;47.620;12.188;2023-11-21T11:42:57;2.65;;;1.10;;
34828;SDS011;21042;47.620;12.188;2023-11-21T11:45:25;1.92;;;0.80;;
34828;SDS011;21042;47.620;12.188;2023-11-21T11:48:00;3.33;;;1.08;;
34828;SDS011;21042;47.620;12.188;2023-11-21T11:50:27;1.70;;;1.10;;
34828;SDS011;21042;47.620;12.188;2023-11-21T11:52:55;1.88;;;1.10;;
34828;SDS011;21042;47.620;12.188;2023-11-21T11:55:37;3.60;;;1.15;;
34828;SDS011;21042;47.620;12.188;2023-11-21T11:58:05;2.70;;;1.20;;
34828;SDS011;21042;47.620;12.188;2023-11-21T12:03:04;3.35;;;1.42;;
34828;SDS011;21042;47.620;12.188;2023-11-21T12:05:34;1.40;;;0.57;;
34828;SDS011;21042;47.620;12.188;2023-11-21T12:10:38;3.65;;;0.85;;
34828;SDS011;21042;47.620;12.188;2023-11-21T12:13:07;1.75;;;0.60;;
34828;SDS011;21042;47.620;12.188;2023-11-21T12:15:38;1.23;;;0.40;;
34828;SDS011;21042;47.620;12.188;2023-11-21T12:18:07;3.17;;;0.80;;
34828;SDS011;21042;47.620;12.188;2023-11-21T12:23:09;3.85;;;0.50;;
34828;SDS011;21042;47.620;12.188;2023-11-21T12:25:37;1.40;;;0.43;;
34828;SDS011;21042;47.620;12.188;2023-11-21T12:28:08;1.20;;;0.40;;
34828;SDS011;21042;47.620;12.188;2023-11-21T12:30:35;0.93;;;0.40;;
34828;SDS011;21042;47.620;12.188;2023-11-21T12:33:04;2.38;;;0.60;;
34828;SDS011;21042;47.620;12.188;2023-11-21T12:35:33;2.47;;;0.43;;
34828;SDS011;21042;47.620;12.188;2023-11-21T12:38:02;1.40;;;0.50;;
34828;SDS011;21042;47.620;12.188;2023-11-21T12:40:30;0.82;;;0.60;;
34828;SDS011;21042;47.620;12.188;2023-11-21T12:42:57;2.17;;;0.80;;
34828;SDS011;21042;47.620;12.188;2023-11-21T12:45:26;2.45;;;0.40;;
34828;SDS011;21042;47.620;12.188;2023-11-21T12:47:55;0.50;;;0.50;;
34828;SDS011;21042;47.620;12.188;2023-11-21T12:50:35;0.68;;;0.60;;
34828;SDS011;21042;47.620;12.188;2023-11-21T12:53:04;4.07;;;1.02;;
34828;SDS011;21042;47.620;12.188;2023-11-21T12:55:36;2.22;;;0.70;;
34828;SDS011;21042;47.620;12.188;2023-11-21T12:58:08;2.00;;;0.60;;
34828;SDS011;21042;47.620;12.188;2023-11-21T13:00:42;3.17;;;0.77;;
34828;SDS011;21042;47.620;12.188;2023-11-21T13:03:11;2.40;;;0.63;;
34828;SDS011;21042;47.620;12.188;2023-11-21T13:05:43;2.95;;;0.60;;
34828;SDS011;21042;47.620;12.188;2023-11-21T13:08:14;3.90;;;0.75;;
34828;SDS011;21042;47.620;12.188;2023-11-21T13:10:46;1.73;;;0.82;;
34828;SDS011;21042;47.620;12.188;2023-11-21T13:13:16;3.97;;;0.57;;
34828;SDS011;21042;47.620;12.188;2023-11-21T13:15:56;2.67;;;0.50;;
34828;SDS011;21042;47.620;12.188;2023-11-21T13:18:28;3.10;;;0.85;;
34828;SDS011;21042;47.620;12.188;2023-11-21T13:20:56;1.88;;;0.50;;
34828;SDS011;21042;47.620;12.188;2023-11-21T13:23:24;1.05;;;0.57;;
34828;SDS011;21042;47.620;12.188;2023-11-21T13:25:53;2.83;;;0.65;;
34828;SDS011;21042;47.620;12.188;2023-11-21T13:28:33;1.02;;;0.60;;
34828;SDS011;21042;47.620;12.188;2023-11-21T13:31:02;4.15;;;0.90;;
34828;SDS011;21042;47.620;12.188;2023-11-21T13:33:37;6.07;;;0.90;;
34828;SDS011;21042;47.620;12.188;2023-11-21T13:36:07;1.05;;;0.73;;
34828;SDS011;21042;47.620;12.188;2023-11-21T13:38:37;1.10;;;0.70;;
34828;SDS011;21042;47.620;12.188;2023-11-21T13:41:09;2.15;;;0.88;;
34828;SDS011;21042;47.620;12.188;2023-11-21T13:43:39;1.77;;;0.80;;
34828;SDS011;21042;47.620;12.188;2023-11-21T13:46:06;0.70;;;0.70;;
34828;SDS011;21042;47.620;12.188;2023-11-21T13:48:40;2.33;;;0.80;;
34828;SDS011;21042;47.620;12.188;2023-11-21T13:51:16;12.73;;;3.25;;
34828;SDS011;21042;47.620;12.188;2023-11-21T13:53:44;9.23;;;1.90;;
34828;SDS011;21042;47.620;12.188;2023-11-21T13:56:14;2.63;;;1.00;;
34828;SDS011;21042;47.620;12.188;2023-11-21T13:58:45;0.95;;;0.70;;
34828;SDS011;21042;47.620;12.188;2023-11-21T14:01:18;3.80;;;1.08;;
34828;SDS011;21042;47.620;12.188;2023-11-21T14:03:57;1.38;;;0.70;;
34828;SDS011;21042;47.620;12.188;2023-11-21T14:06:43;2.65;;;1.08;;
34828;SDS011;21042;47.620;12.188;2023-11-21T14:09:16;3.38;;;1.20;;
34828;SDS011;21042;47.620;12.188;2023-11-21T14:11:59;1.83;;;1.20;;
34828;SDS011;21042;47.620;12.188;2023-11-21T14:14:29;3.15;;;1.38;;
34828;SDS011;21042;47.620;12.188;2023-11-21T14:16:55;4.10;;;1.17;;
34828;SDS011;21042;47.620;12.188;2023-11-21T14:19:25;2.83;;;1.50;;
34828;SDS011;21042;47.620;12.188;2023-11-21T14:21:57;2.35;;;1.20;;
34828;SDS011;21042;47.620;12.188;2023-11-21T14:24:24;5.22;;;1.60;;
34828;SDS011;21042;47.620;12.188;2023-11-21T14:26:51;2.85;;;1.30;;
34828;SDS011;21042;47.620;12.188;2023-11-21T14:29:19;2.88;;;1.58;;
34828;SDS011;21042;47.620;12.188;2023-11-21T14:31:47;2.70;;;1.48;;
34828;SDS011;21042;47.620;12.188;2023-11-21T14:34:14;5.25;;;2.55;;
34828;SDS011;21042;47.620;12.188;2023-11-21T14:36:45;12.00;;;4.30;;
34828;SDS011;21042;47.620;12.188;2023-11-21T14:39:12;12.98;;;4.15;;
34828;SDS011;21042;47.620;12.188;2023-11-21T14:41:54;7.15;;;3.67;;
34828;SDS011;21042;47.620;12.188;2023-11-21T14:44:25;9.77;;;4.25;;
34828;SDS011;21042;47.620;12.188;2023-11-21T14:46:55;15.85;;;7.35;;
34828;SDS011;21042;47.620;12.188;2023-11-21T14:49:24;18.77;;;7.45;;
34828;SDS011;21042;47.620;12.188;2023-11-21T14:51:54;20.58;;;9.35;;
34828;SDS011;21042;47.620;12.188;2023-11-21T14:54:29;13.45;;;7.45;;
34828;SDS011;21042;47.620;12.188;2023-11-21T14:57:07;14.77;;;6.50;;
34828;SDS011;21042;47.620;12.188;2023-11-21T14:59:42;16.52;;;8.45;;
34828;SDS011;21042;47.620;12.188;2023-11-21T15:02:23;25.75;;;12.25;;
34828;SDS011;21042;47.620;12.188;2023-11-21T15:05:09;16.25;;;8.65;;
34828;SDS011;21042;47.620;12.188;2023-11-21T15:07:43;17.45;;;8.50;;
34828;SDS011;21042;47.620;12.188;2023-11-21T15:10:12;16.85;;;8.20;;
34828;SDS011;21042;47.620;12.188;2023-11-21T15:12:42;12.75;;;6.22;;
34828;SDS011;21042;47.620;12.188;2023-11-21T15:15:10;10.57;;;4.95;;
34828;SDS011;21042;47.620;12.188;2023-11-21T15:17:38;7.13;;;3.72;;
34828;SDS011;21042;47.620;12.188;2023-11-21T15:20:09;10.02;;;5.20;;
34828;SDS011;21042;47.620;12.188;2023-11-21T15:22:39;7.70;;;5.05;;
34828;SDS011;21042;47.620;12.188;2023-11-21T15:25:06;10.80;;;6.45;;
34828;SDS011;21042;47.620;12.188;2023-11-21T15:27:36;10.15;;;5.20;;
34828;SDS011;21042;47.620;12.188;2023-11-21T15:30:03;13.63;;;6.50;;
34828;SDS011;21042;47.620;12.188;2023-11-21T15:32:31;11.70;;;5.50;;